Time;durP1;ratioP1;P1;durP2;ratioP2;P2;SDS_P1;SDS_P2;PMS_P1;PMS_P2;Temp;Humidity;BMP_temperature;BMP_pressure;BME280_temperature;BME280_humidity;BME280_pressure;Samples;Min_cycle;Max_cycle;Signal;HPM_P1;HPM_P2
2023/09/06 00:00:29;;;;;;;5.28;3.63;;;18.80;99.90;;;;;;5044098;28;20040;-71
2023/09/06 00:02:56;;;;;;;4.82;3.88;;;18.80;99.90;;;;;;5072746;28;20056;-71
2023/09/06 00:05:22;;;;;;;5.43;3.50;;;18.80;99.90;;;;;;5069272;28;20197;-71
2023/09/06 00:07:48;;;;;;;4.82;3.50;;;18.80;99.90;;;;;;5066721;28;20130;-71
2023/09/06 00:10:14;;;;;;;4.57;3.42;;;18.80;99.90;;;;;;5057810;28;20052;-71
2023/09/06 00:12:45;;;;;;;4.57;3.50;;;18.70;99.90;;;;;;5051529;28;20101;-71
2023/09/06 00:15:14;;;;;;;5.45;3.83;;;18.70;99.90;;;;;;5062022;28;20041;-71
2023/09/06 00:17:43;;;;;;;4.28;3.72;;;18.70;99.90;;;;;;5047720;28;20127;-71
2023/09/06 00:20:20;;;;;;;4.57;3.73;;;18.70;99.90;;;;;;5046377;28;20082;-71
2023/09/06 00:22:53;;;;;;;4.85;4.35;;;18.70;99.90;;;;;;5053862;28;20299;-71
2023/09/06 00:25:19;;;;;;;7.20;4.20;;;18.70;99.90;;;;;;5062196;28;20047;-71
2023/09/06 00:27:45;;;;;;;4.47;3.20;;;18.70;99.90;;;;;;5063783;28;20036;-71
2023/09/06 00:30:20;;;;;;;6.18;3.50;;;18.70;99.90;;;;;;5058357;28;20135;-71
2023/09/06 00:32:47;;;;;;;4.22;3.25;;;18.70;99.90;;;;;;5039055;28;20047;-71
2023/09/06 00:35:16;;;;;;;4.20;3.38;;;18.70;99.90;;;;;;5047532;28;20525;-71
2023/09/06 00:37:45;;;;;;;4.13;3.45;;;18.70;99.90;;;;;;5058665;28;20056;-71
2023/09/06 00:40:17;;;;;;;5.90;3.70;;;18.70;99.90;;;;;;5096488;27;20031;-71
2023/09/06 00:42:46;;;;;;;5.72;3.92;;;18.70;99.90;;;;;;5068191;28;20139;-71
2023/09/06 00:45:12;;;;;;;5.05;4.55;;;18.70;99.90;;;;;;5060242;28;20086;-71
2023/09/06 00:47:38;;;;;;;4.65;3.25;;;18.70;99.90;;;;;;5064795;28;20047;-71
2023/09/06 00:50:05;;;;;;;5.28;3.85;;;18.70;99.90;;;;;;5062179;28;20044;-71
2023/09/06 00:52:31;;;;;;;4.53;4.00;;;18.70;99.90;;;;;;5065230;28;20080;-71
2023/09/06 00:55:01;;;;;;;5.05;3.97;;;18.70;99.90;;;;;;5063983;28;20050;-72
2023/09/06 00:57:32;;;;;;;5.32;3.88;;;18.80;99.90;;;;;;5054078;28;20110;-71
2023/09/06 00:59:59;;;;;;;6.25;4.47;;;18.70;99.90;;;;;;5063390;28;20102;-71
2023/09/06 01:02:26;;;;;;;6.97;5.13;;;18.80;99.90;;;;;;5059917;28;20055;-71
2023/09/06 01:04:53;;;;;;;4.72;4.03;;;18.70;99.90;;;;;;5064874;28;20039;-71
2023/09/06 01:07:21;;;;;;;6.75;4.85;;;18.70;99.90;;;;;;5045888;28;20052;-71
2023/09/06 01:09:47;;;;;;;4.65;4.13;;;18.70;99.90;;;;;;5039344;28;20867;-71
2023/09/06 01:12:12;;;;;;;4.63;3.92;;;18.70;99.90;;;;;;5061334;28;20491;-71
2023/09/06 01:14:40;;;;;;;4.57;3.60;;;18.70;99.90;;;;;;5065425;28;20028;-71
2023/09/06 01:17:08;;;;;;;5.93;4.25;;;18.70;99.90;;;;;;5059769;28;20049;-71
2023/09/06 01:19:36;;;;;;;6.20;4.30;;;18.70;99.90;;;;;;5057524;28;20051;-71
2023/09/06 01:22:26;;;;;;;4.53;3.83;;;18.70;99.90;;;;;;5045086;28;20040;-71
2023/09/06 01:24:52;;;;;;;;;;;18.70;99.90;;;;;;5049610;28;20048;-71
2023/09/06 01:27:19;;;;;;;5.28;3.75;;;18.60;99.90;;;;;;5101697;27;20298;-71
2023/09/06 01:29:44;;;;;;;5.60;4.07;;;18.60;99.90;;;;;;5060337;28;20795;-71
2023/09/06 01:32:14;;;;;;;7.03;3.85;;;18.50;99.90;;;;;;5063190;28;20143;-71
2023/09/06 01:34:43;;;;;;;5.35;4.25;;;18.60;99.90;;;;;;5064874;28;20060;-71
2023/09/06 01:37:08;;;;;;;4.90;3.85;;;18.50;99.90;;;;;;5050323;28;20043;-71
2023/09/06 01:39:34;;;;;;;4.88;3.70;;;18.50;99.90;;;;;;5066394;28;20048;-71
2023/09/06 01:42:00;;;;;;;4.22;3.65;;;18.50;99.90;;;;;;5058550;28;20489;-71
2023/09/06 01:44:26;;;;;;;5.88;4.22;;;18.50;99.90;;;;;;5048310;28;20628;-71
2023/09/06 01:46:52;;;;;;;6.60;4.82;;;18.50;99.90;;;;;;5064014;28;20516;-71
2023/09/06 01:49:18;;;;;;;4.50;3.53;;;18.50;99.90;;;;;;5063235;28;20053;-71
2023/09/06 01:51:44;;;;;;;5.55;4.43;;;18.40;99.90;;;;;;5048254;28;20037;-71
2023/09/06 01:54:11;;;;;;;4.50;3.50;;;18.40;99.90;;;;;;5060615;28;20044;-71
2023/09/06 01:56:37;;;;;;;7.80;4.47;;;18.50;99.90;;;;;;5068156;28;20051;-71
2023/09/06 01:59:03;;;;;;;5.05;4.20;;;18.40;99.90;;;;;;5074268;28;20036;-71
2023/09/06 02:01:30;;;;;;;4.88;4.00;;;18.40;99.90;;;;;;5044953;28;20389;-71
2023/09/06 02:03:56;;;;;;;6.30;3.85;;;18.30;99.90;;;;;;5055844;28;20480;-71
2023/09/06 02:06:21;;;;;;;4.53;3.70;;;18.30;99.90;;;;;;5045547;28;20605;-70
2023/09/06 02:08:49;;;;;;;4.65;3.75;;;18.30;99.90;;;;;;5053437;28;20445;-71
2023/09/06 02:11:14;;;;;;;6.57;4.40;;;18.30;99.90;;;;;;5044564;28;20129;-71
2023/09/06 02:13:40;;;;;;;5.20;3.75;;;18.30;99.90;;;;;;5050270;28;20523;-71
2023/09/06 02:16:06;;;;;;;5.40;3.53;;;18.30;99.90;;;;;;5060097;28;20316;-71
2023/09/06 02:18:32;;;;;;;6.57;4.35;;;18.30;99.90;;;;;;5044072;28;20044;-71
2023/09/06 02:20:58;;;;;;;5.28;3.50;;;18.20;99.90;;;;;;5042338;28;20110;-71
2023/09/06 02:23:24;;;;;;;5.72;4.25;;;18.30;99.90;;;;;;5056566;28;20139;-71
2023/09/06 02:25:50;;;;;;;4.78;3.65;;;18.20;99.90;;;;;;5051110;28;20500;-71
2023/09/06 02:28:17;;;;;;;6.10;4.57;;;18.20;99.90;;;;;;5055176;28;20052;-71
2023/09/06 02:30:43;;;;;;;4.75;3.50;;;18.20;99.90;;;;;;5063331;28;20059;-71
2023/09/06 02:33:14;;;;;;;4.53;3.42;;;18.10;99.90;;;;;;5040303;28;21368;-71
2023/09/06 02:35:41;;;;;;;5.60;4.30;;;18.10;99.90;;;;;;5066437;28;20498;-71
2023/09/06 02:38:11;;;;;;;7.20;3.58;;;18.10;99.90;;;;;;5058956;28;20107;-71
2023/09/06 02:40:40;;;;;;;6.13;4.20;;;18.10;99.90;;;;;;5048371;28;20048;-71
2023/09/06 02:43:06;;;;;;;4.63;3.47;;;18.00;99.90;;;;;;5058499;28;20044;-71
2023/09/06 02:45:38;;;;;;;6.05;4.18;;;18.00;99.90;;;;;;5065064;28;20041;-71
2023/09/06 02:48:12;;;;;;;6.10;4.07;;;17.90;99.90;;;;;;5061219;28;20179;-71
2023/09/06 02:50:41;;;;;;;4.22;2.90;;;17.90;99.90;;;;;;5060404;28;20542;-71
2023/09/06 02:53:19;;;;;;;5.27;3.33;;;17.90;99.90;;;;;;5057723;28;20040;-71
2023/09/06 02:55:51;;;;;;;4.38;2.85;;;17.80;99.90;;;;;;5062964;28;20394;-71
2023/09/06 02:58:23;;;;;;;6.10;4.10;;;17.80;99.90;;;;;;5061673;28;20044;-71
2023/09/06 03:01:04;;;;;;;4.40;3.65;;;17.70;99.90;;;;;;5059205;28;20052;-71
2023/09/06 03:03:31;;;;;;;5.65;3.75;;;17.60;99.90;;;;;;5055194;28;20055;-71
2023/09/06 03:05:58;;;;;;;5.35;4.13;;;17.60;99.90;;;;;;5045469;28;20048;-70
2023/09/06 03:08:25;;;;;;;4.32;3.50;;;17.50;99.90;;;;;;5061549;28;20063;-71
2023/09/06 03:10:52;;;;;;;5.72;4.63;;;17.50;99.90;;;;;;5060920;28;20661;-71
2023/09/06 03:13:20;;;;;;;5.00;3.80;;;17.50;99.90;;;;;;5061386;28;20056;-71
2023/09/06 03:15:51;;;;;;;5.78;3.70;;;17.50;99.90;;;;;;5081381;28;20079;-71
2023/09/06 03:18:17;;;;;;;6.20;4.43;;;17.40;99.90;;;;;;5051995;28;20040;-71
2023/09/06 03:20:43;;;;;;;5.30;4.10;;;17.40;99.90;;;;;;5060331;28;20124;-71
2023/09/06 03:23:19;;;;;;;6.57;4.15;;;17.40;99.90;;;;;;5062060;28;20103;-71
2023/09/06 03:25:57;;;;;;;4.93;4.35;;;17.40;99.90;;;;;;5061230;28;20053;-71
2023/09/06 03:28:25;;;;;;;5.70;4.10;;;17.30;99.90;;;;;;5095869;27;20067;-71
2023/09/06 03:30:58;;;;;;;4.90;3.40;;;17.30;99.90;;;;;;5050863;28;20036;-71
2023/09/06 03:33:25;;;;;;;4.90;3.92;;;17.20;99.90;;;;;;5049855;28;20061;-71
2023/09/06 03:35:53;;;;;;;7.03;4.78;;;17.20;99.90;;;;;;5065489;28;20091;-71
2023/09/06 03:38:25;;;;;;;6.25;4.22;;;17.20;99.90;;;;;;5071582;28;20044;-71
2023/09/06 03:40:52;;;;;;;5.80;3.78;;;17.20;99.90;;;;;;5044859;28;20048;-71
2023/09/06 03:43:29;;;;;;;5.20;4.43;;;17.20;99.90;;;;;;5054089;28;20501;-71
2023/09/06 03:45:58;;;;;;;5.80;4.95;;;17.20;99.90;;;;;;5058497;28;20045;-71
2023/09/06 03:48:26;;;;;;;7.47;4.60;;;17.30;99.90;;;;;;5056754;28;20122;-71
2023/09/06 03:50:55;;;;;;;5.53;4.97;;;17.20;99.90;;;;;;5043015;28;20040;-71
2023/09/06 03:53:23;;;;;;;6.15;5.20;;;17.20;99.90;;;;;;5061428;28;20122;-71
2023/09/06 03:55:50;;;;;;;7.50;5.38;;;17.20;99.90;;;;;;5060885;28;20257;-71
2023/09/06 03:58:15;;;;;;;8.25;4.70;;;17.20;99.90;;;;;;5058903;28;20136;-71
2023/09/06 04:00:44;;;;;;;6.00;5.30;;;17.10;99.90;;;;;;5047115;28;20135;-71
2023/09/06 04:03:14;;;;;;;7.63;6.37;;;17.10;99.90;;;;;;5054742;28;20868;-71
2023/09/06 04:05:43;;;;;;;7.85;6.78;;;17.10;99.90;;;;;;5058568;28;20133;-71
2023/09/06 04:08:09;;;;;;;7.00;5.15;;;17.00;99.90;;;;;;5064398;28;20047;-71
2023/09/06 04:10:36;;;;;;;7.90;5.13;;;17.00;99.90;;;;;;5064114;28;20049;-71
2023/09/06 04:13:14;;;;;;;7.00;5.07;;;17.00;99.90;;;;;;5056368;28;20102;-71
2023/09/06 04:15:43;;;;;;;7.47;6.35;;;17.00;99.90;;;;;;5058503;28;20056;-71
2023/09/06 04:18:10;;;;;;;8.20;7.40;;;16.90;99.90;;;;;;5058395;28;20446;-71
2023/09/06 04:20:46;;;;;;;7.80;6.97;;;16.90;99.90;;;;;;5044084;28;20479;-71
2023/09/06 04:23:13;;;;;;;9.20;7.85;;;16.90;99.90;;;;;;5059459;28;20043;-73
2023/09/06 04:25:47;;;;;;;7.53;6.65;;;16.90;99.90;;;;;;5058805;28;20044;-71
2023/09/06 04:28:15;;;;;;;10.30;8.45;;;16.90;99.90;;;;;;5052695;28;20116;-71
2023/09/06 04:30:43;;;;;;;6.50;5.45;;;16.90;99.90;;;;;;5059651;28;20049;-71
2023/09/06 04:33:14;;;;;;;9.52;7.65;;;16.90;99.90;;;;;;5055067;28;20060;-71
2023/09/06 04:35:45;;;;;;;8.05;7.00;;;16.90;99.90;;;;;;5062338;28;20079;-71
2023/09/06 04:38:16;;;;;;;7.68;6.60;;;16.80;99.90;;;;;;5073649;28;20098;-71
2023/09/06 04:40:46;;;;;;;10.02;7.93;;;16.90;99.90;;;;;;5058756;28;20082;-71
2023/09/06 04:43:19;;;;;;;7.75;5.68;;;16.80;99.90;;;;;;5041401;28;20076;-71
2023/09/06 04:45:46;;;;;;;8.93;6.57;;;16.80;99.90;;;;;;5058701;28;20067;-73
2023/09/06 04:48:16;;;;;;;6.30;5.70;;;16.80;99.90;;;;;;5077737;28;20703;-71
2023/09/06 04:50:44;;;;;;;7.55;5.25;;;16.70;99.90;;;;;;5065252;28;20573;-71
2023/09/06 04:53:12;;;;;;;6.55;5.22;;;16.70;99.90;;;;;;5047684;28;20545;-71
2023/09/06 04:55:39;;;;;;;6.80;5.53;;;16.80;99.90;;;;;;5064622;28;20041;-71
2023/09/06 04:58:07;;;;;;;7.35;5.63;;;16.70;99.90;;;;;;5058958;28;20036;-71
2023/09/06 05:00:38;;;;;;;9.63;6.90;;;16.70;99.90;;;;;;5064079;28;20084;-73
2023/09/06 05:03:10;;;;;;;9.98;7.05;;;16.70;99.90;;;;;;5044202;28;20057;-71
2023/09/06 05:05:37;;;;;;;7.50;4.88;;;16.60;99.90;;;;;;5061683;28;20128;-71
2023/09/06 05:08:04;;;;;;;8.88;8.07;;;16.60;99.90;;;;;;5058659;28;20047;-71
2023/09/06 05:10:30;;;;;;;10.75;9.25;;;16.60;99.90;;;;;;5050290;28;20048;-71
2023/09/06 05:12:55;;;;;;;10.63;9.30;;;16.60;99.90;;;;;;5063076;28;20047;-70
2023/09/06 05:15:21;;;;;;;9.57;8.23;;;16.60;99.90;;;;;;5066133;28;20052;-71
2023/09/06 05:17:47;;;;;;;8.02;7.22;;;16.60;99.90;;;;;;5054878;28;20049;-71
2023/09/06 05:20:28;;;;;;;7.15;6.22;;;16.70;99.90;;;;;;5053558;28;20137;-72
2023/09/06 05:22:56;;;;;;;7.80;6.03;;;16.60;99.90;;;;;;5069032;28;20041;-71
2023/09/06 05:25:22;;;;;;;9.82;8.88;;;16.60;99.90;;;;;;5048425;28;20048;-71
2023/09/06 05:27:48;;;;;;;8.25;7.07;;;16.70;99.90;;;;;;5060482;28;20514;-71
2023/09/06 05:30:14;;;;;;;10.63;8.15;;;16.70;99.90;;;;;;5043553;28;20041;-71
2023/09/06 05:32:43;;;;;;;11.73;9.02;;;16.70;99.90;;;;;;5045152;28;20056;-71
2023/09/06 05:35:09;;;;;;;8.52;7.20;;;16.70;99.90;;;;;;5051754;28;20036;-71
2023/09/06 05:37:35;;;;;;;9.07;8.07;;;16.70;99.90;;;;;;5066580;28;20418;-71
2023/09/06 05:40:04;;;;;;;10.05;8.88;;;16.70;99.90;;;;;;5064044;28;20581;-71
2023/09/06 05:42:30;;;;;;;8.88;8.00;;;16.70;99.90;;;;;;5089188;27;20131;-71
2023/09/06 05:44:56;;;;;;;10.32;9.23;;;16.70;99.90;;;;;;5049636;28;20032;-72
2023/09/06 05:47:22;;;;;;;9.38;8.48;;;16.80;99.90;;;;;;5054907;28;20065;-70
2023/09/06 05:49:52;;;;;;;8.80;7.78;;;16.70;99.90;;;;;;5070062;28;20523;-71
2023/09/06 05:52:18;;;;;;;9.27;8.38;;;16.80;99.90;;;;;;5059927;28;20403;-74
2023/09/06 05:54:48;;;;;;;7.60;6.90;;;16.80;99.90;;;;;;5060755;28;20052;-75
2023/09/06 05:57:16;;;;;;;;;;;16.80;99.90;;;;;;5050324;28;20511;-74
2023/09/06 05:59:42;;;;;;;10.20;7.88;;;16.90;99.90;;;;;;5061604;28;20022;-73
2023/09/06 06:02:17;;;;;;;9.40;8.07;;;16.90;99.90;;;;;;5060012;28;20115;-75
2023/09/06 06:04:46;;;;;;;7.65;6.85;;;16.90;99.90;;;;;;5045555;28;20052;-74
2023/09/06 06:07:16;;;;;;;10.32;8.05;;;17.00;99.90;;;;;;5048915;28;20119;-75
2023/09/06 06:09:42;;;;;;;8.10;7.30;;;17.00;99.90;;;;;;5061545;28;20051;-74
2023/09/06 06:12:14;;;;;;;9.93;8.93;;;17.10;99.90;;;;;;5047317;28;20039;-75
2023/09/06 06:14:42;;;;;;;10.00;8.65;;;17.10;99.90;;;;;;5073976;28;20040;-74
2023/09/06 06:17:11;;;;;;;9.57;8.05;;;17.20;99.90;;;;;;5071697;28;20756;-73
2023/09/06 06:19:37;;;;;;;10.20;8.75;;;17.20;99.90;;;;;;5062779;28;20044;-74
2023/09/06 06:22:03;;;;;;;8.38;7.57;;;17.30;99.90;;;;;;5041189;28;20445;-74
2023/09/06 06:24:35;;;;;;;8.70;6.85;;;17.30;99.90;;;;;;5043273;28;20499;-75
2023/09/06 06:27:01;;;;;;;8.32;6.72;;;17.40;99.90;;;;;;5052440;28;20037;-75
2023/09/06 06:29:30;;;;;;;8.77;7.32;;;17.40;99.90;;;;;;5061291;28;20045;-75
2023/09/06 06:31:56;;;;;;;9.93;8.93;;;17.50;99.90;;;;;;5066154;28;20130;-74
2023/09/06 06:34:24;;;;;;;7.53;6.72;;;17.50;99.90;;;;;;5058749;28;20044;-75
2023/09/06 06:36:50;;;;;;;8.65;7.38;;;17.60;99.90;;;;;;5062275;28;20072;-74
2023/09/06 06:39:17;;;;;;;9.93;7.10;;;17.70;99.90;;;;;;5061107;28;20854;-75
2023/09/06 06:41:44;;;;;;;8.18;7.05;;;17.70;99.90;;;;;;5063782;28;20047;-74
2023/09/06 06:44:10;;;;;;;7.97;7.18;;;17.80;99.90;;;;;;5048226;28;20071;-75
2023/09/06 06:46:39;;;;;;;8.50;7.63;;;17.80;99.90;;;;;;5062726;28;20494;-75
2023/09/06 06:49:07;;;;;;;7.97;7.15;;;17.90;99.90;;;;;;5069294;28;20102;-75
2023/09/06 06:51:39;;;;;;;10.68;7.30;;;18.00;99.90;;;;;;5062314;28;20044;-73
2023/09/06 06:54:06;;;;;;;7.75;6.95;;;18.10;99.90;;;;;;5048681;28;20534;-75
2023/09/06 06:56:32;;;;;;;8.02;7.10;;;18.20;99.90;;;;;;5070459;28;20078;-75
2023/09/06 06:58:58;;;;;;;8.88;6.45;;;18.20;99.90;;;;;;5042390;28;20037;-75
2023/09/06 07:01:24;;;;;;;8.35;6.70;;;18.30;99.90;;;;;;5063889;28;20052;-75
2023/09/06 07:03:51;;;;;;;7.40;6.60;;;18.40;99.90;;;;;;5049316;28;20372;-75
2023/09/06 07:06:16;;;;;;;8.07;6.65;;;18.50;99.90;;;;;;5053631;28;20127;-75
2023/09/06 07:08:42;;;;;;;8.68;6.80;;;18.50;99.90;;;;;;5042564;28;20128;-75
2023/09/06 07:11:11;;;;;;;7.57;6.05;;;18.70;99.90;;;;;;5046613;28;20165;-75
2023/09/06 07:13:38;;;;;;;7.38;6.05;;;18.80;99.90;;;;;;5039607;28;20817;-75
2023/09/06 07:16:04;;;;;;;7.90;7.15;;;18.90;99.90;;;;;;5047066;28;20055;-75
2023/09/06 07:18:30;;;;;;;7.68;6.07;;;19.10;99.90;;;;;;5055998;28;20495;-75
2023/09/06 07:20:56;;;;;;;6.65;5.80;;;19.30;99.90;;;;;;5052001;28;20044;-75
2023/09/06 07:23:22;;;;;;;8.18;6.00;;;19.50;99.90;;;;;;5057384;28;20048;-75
2023/09/06 07:25:48;;;;;;;6.72;5.70;;;19.70;99.90;;;;;;5039118;28;20044;-75
2023/09/06 07:28:14;;;;;;;8.13;5.30;;;19.90;99.90;;;;;;5057317;28;20040;-75
2023/09/06 07:30:43;;;;;;;8.82;4.63;;;20.20;99.90;;;;;;5065648;28;20032;-75
2023/09/06 07:33:11;;;;;;;6.45;4.47;;;20.40;99.90;;;;;;5046200;28;20048;-75
2023/09/06 07:35:36;;;;;;;5.60;3.72;;;20.60;99.90;;;;;;5067977;28;20044;-75
2023/09/06 07:38:02;;;;;;;4.97;3.70;;;20.80;99.90;;;;;;5057219;28;20036;-73
2023/09/06 07:40:28;;;;;;;5.65;3.63;;;20.90;99.90;;;;;;5048038;28;20044;-74
2023/09/06 07:42:54;;;;;;;5.40;3.50;;;21.00;99.90;;;;;;5046930;28;20051;-73
2023/09/06 07:45:19;;;;;;;5.07;3.75;;;21.20;99.90;;;;;;5062412;28;20071;-73
2023/09/06 07:47:48;;;;;;;6.00;3.75;;;21.30;99.90;;;;;;5061845;28;20090;-73
2023/09/06 07:50:14;;;;;;;6.43;3.50;;;21.50;99.90;;;;;;5039726;28;20044;-73
2023/09/06 07:52:39;;;;;;;4.97;3.30;;;21.70;99.90;;;;;;5056923;28;20053;-73
2023/09/06 07:55:06;;;;;;;5.32;3.70;;;21.80;99.90;;;;;;5047987;28;20047;-73
2023/09/06 07:57:31;;;;;;;5.32;3.28;;;22.00;99.90;;;;;;5056405;28;20059;-73
2023/09/06 07:59:57;;;;;;;5.22;3.40;;;22.20;99.90;;;;;;5060825;28;20071;-73
2023/09/06 08:02:26;;;;;;;5.90;3.17;;;22.30;99.90;;;;;;5092607;28;20494;-73
2023/09/06 08:04:52;;;;;;;4.00;3.15;;;22.50;99.90;;;;;;5064752;28;20102;-73
2023/09/06 08:07:19;;;;;;;6.97;3.33;;;22.70;99.90;;;;;;5062469;28;20037;-73
2023/09/06 08:09:45;;;;;;;5.22;3.33;;;22.90;99.90;;;;;;5055301;28;20056;-73
2023/09/06 08:12:11;;;;;;;5.07;3.08;;;23.00;99.90;;;;;;5054722;28;20091;-73
2023/09/06 08:14:38;;;;;;;4.78;2.65;;;23.10;99.90;;;;;;5062663;28;20055;-74
2023/09/06 08:17:05;;;;;;;4.05;2.63;;;23.30;99.90;;;;;;5060825;28;20418;-74
2023/09/06 08:19:30;;;;;;;3.85;2.72;;;23.40;99.90;;;;;;5066796;28;20114;-74
2023/09/06 08:21:56;;;;;;;6.38;2.65;;;23.50;99.90;;;;;;5063219;28;20048;-74
2023/09/06 08:24:23;;;;;;;4.38;2.60;;;23.60;99.90;;;;;;5063079;28;20051;-74
2023/09/06 08:26:48;;;;;;;4.38;2.65;;;23.80;99.90;;;;;;5050690;28;20135;-74
2023/09/06 08:29:14;;;;;;;3.58;2.50;;;23.90;99.90;;;;;;5041702;28;20170;-74
2023/09/06 08:31:43;;;;;;;4.75;2.70;;;24.10;99.90;;;;;;5045440;28;20089;-74
2023/09/06 08:34:13;;;;;;;4.43;2.50;;;24.20;99.90;;;;;;5076395;28;20128;-74
2023/09/06 08:36:39;;;;;;;3.50;2.60;;;24.30;99.90;;;;;;5069344;28;20475;-74
2023/09/06 08:39:06;;;;;;;4.93;2.83;;;24.50;99.90;;;;;;5063356;28;20069;-74
2023/09/06 08:41:33;;;;;;;4.20;2.55;;;24.50;99.90;;;;;;5065742;28;20129;-73
2023/09/06 08:44:03;;;;;;;3.25;2.50;;;24.60;99.90;;;;;;5045585;28;20102;-74
2023/09/06 08:46:38;;;;;;;3.90;2.38;;;24.70;99.90;;;;;;5065937;28;20062;-74
2023/09/06 08:49:04;;;;;;;3.72;2.47;;;24.70;99.90;;;;;;5077917;28;20040;-74
2023/09/06 08:51:35;;;;;;;5.05;2.70;;;24.70;99.90;;;;;;5046523;28;20372;-74
2023/09/06 08:54:04;;;;;;;5.32;2.90;;;24.90;99.90;;;;;;5064581;28;20041;-73
2023/09/06 08:56:32;;;;;;;3.50;2.40;;;24.90;99.90;;;;;;5048817;28;20190;-74
2023/09/06 08:58:59;;;;;;;5.93;2.80;;;25.10;99.90;;;;;;5048114;28;20101;-73
2023/09/06 09:01:25;;;;;;;5.20;2.40;;;25.20;99.90;;;;;;5060023;28;20123;-74
2023/09/06 09:03:51;;;;;;;4.72;2.50;;;25.20;99.90;;;;;;5045650;28;20044;-73
2023/09/06 09:06:17;;;;;;;4.07;2.45;;;25.30;99.90;;;;;;5070554;28;20051;-74
2023/09/06 09:08:43;;;;;;;4.65;2.60;;;25.40;99.90;;;;;;5058788;28;20049;-74
2023/09/06 09:11:14;;;;;;;5.63;3.40;;;25.50;99.90;;;;;;5065540;28;20490;-74
2023/09/06 09:13:41;;;;;;;4.47;3.28;;;25.60;99.90;;;;;;5047477;28;21986;-73
2023/09/06 09:16:12;;;;;;;4.57;2.83;;;25.60;99.90;;;;;;5085803;28;20036;-74
2023/09/06 09:18:39;;;;;;;5.85;3.05;;;25.60;99.90;;;;;;5062352;28;20044;-74
2023/09/06 09:21:09;;;;;;;4.97;3.15;;;25.70;99.90;;;;;;5069048;28;20039;-74
2023/09/06 09:23:55;;;;;;;11.55;4.25;;;25.80;99.90;;;;;;5065943;28;20482;-73
2023/09/06 09:26:22;;;;;;;3.83;2.70;;;25.80;99.90;;;;;;5044651;28;20123;-74
2023/09/06 09:28:51;;;;;;;4.65;2.78;;;25.90;99.90;;;;;;5065337;28;20380;-74
2023/09/06 09:31:20;;;;;;;5.80;2.78;;;26.00;99.90;;;;;;5059458;28;20060;-74
2023/09/06 09:33:54;;;;;;;4.53;2.60;;;26.00;99.90;;;;;;5053152;28;20095;-73
2023/09/06 09:36:20;;;;;;;3.88;3.03;;;26.10;99.90;;;;;;5052937;28;20051;-75
2023/09/06 09:38:50;;;;;;;4.78;3.25;;;26.20;99.90;;;;;;5069081;28;20128;-74
2023/09/06 09:41:16;;;;;;;5.28;3.05;;;26.30;99.90;;;;;;5063930;28;20462;-74
2023/09/06 09:43:41;;;;;;;5.45;3.45;;;26.40;99.90;;;;;;5062389;28;20127;-74
2023/09/06 09:46:27;;;;;;;5.05;2.90;;;26.50;99.90;;;;;;5055902;28;20044;-74
2023/09/06 09:48:53;;;;;;;4.32;2.75;;;26.50;99.90;;;;;;5048604;28;20041;-73
2023/09/06 09:51:22;;;;;;;4.80;2.97;;;26.50;99.90;;;;;;5061383;28;20199;-75
2023/09/06 09:53:48;;;;;;;3.85;2.67;;;26.60;99.90;;;;;;5058337;28;20029;-74
2023/09/06 09:56:14;;;;;;;3.53;2.45;;;26.60;99.90;;;;;;5067379;28;20041;-74
2023/09/06 09:58:44;;;;;;;4.05;2.75;;;26.60;99.90;;;;;;5062519;28;20040;-75
2023/09/06 10:01:10;;;;;;;5.03;3.03;;;26.70;99.90;;;;;;5046871;28;20048;-72
2023/09/06 10:03:39;;;;;;;3.97;2.60;;;26.80;99.90;;;;;;5061296;28;20048;-73
2023/09/06 10:06:07;;;;;;;5.40;3.03;;;26.90;99.90;;;;;;5064779;28;20044;-72
2023/09/06 10:08:38;;;;;;;5.45;3.28;;;27.00;99.90;;;;;;5047736;28;20041;-72
2023/09/06 10:11:06;;;;;;;4.07;2.33;;;27.10;99.90;;;;;;5041169;28;20102;-73
2023/09/06 10:13:36;;;;;;;3.95;2.60;;;27.10;99.90;;;;;;5058423;28;20040;-73
2023/09/06 10:16:02;;;;;;;4.80;2.40;;;27.20;99.90;;;;;;5050995;28;20048;-74
2023/09/06 10:18:31;;;;;;;4.68;2.72;;;27.30;99.90;;;;;;5058845;28;20052;-73
2023/09/06 10:20:59;;;;;;;4.38;2.50;;;27.40;99.90;;;;;;5093348;27;20550;-74
2023/09/06 10:23:30;;;;;;;4.07;2.33;;;27.50;99.90;;;;;;5096182;28;20060;-73
2023/09/06 10:25:59;;;;;;;4.55;2.53;;;27.60;99.90;;;;;;5063551;28;20040;-75
2023/09/06 10:28:31;;;;;;;4.25;2.40;;;27.60;99.90;;;;;;5063609;28;20051;-73
2023/09/06 10:31:07;;;;;;;5.15;2.70;;;27.60;99.90;;;;;;5045589;28;20120;-73
2023/09/06 10:33:36;;;;;;;4.00;2.45;;;27.70;99.90;;;;;;5064597;28;20068;-74
2023/09/06 10:36:09;;;;;;;5.82;3.03;;;27.80;99.90;;;;;;5044474;28;20500;-73
2023/09/06 10:38:51;;;;;;;4.68;2.97;;;27.90;99.90;;;;;;5047202;28;20040;-73
2023/09/06 10:41:18;;;;;;;4.63;2.58;;;27.90;99.90;;;;;;5066037;28;20047;-73
2023/09/06 10:44:06;;;;;;;4.15;2.35;;;28.00;99.90;;;;;;5062871;28;20154;-73
2023/09/06 10:46:33;;;;;;;4.28;2.00;;;28.10;99.90;;;;;;5058104;28;20503;-73
2023/09/06 10:49:25;;;;;;;4.65;2.17;;;28.20;99.90;;;;;;5045374;28;20487;-73
2023/09/06 10:52:08;;;;;;;4.80;2.25;;;28.30;98.90;;;;;;5049918;28;20080;-73
2023/09/06 10:54:44;;;;;;;5.28;2.38;;;28.40;97.30;;;;;;5064446;28;20048;-73
2023/09/06 10:57:13;;;;;;;5.80;2.55;;;28.40;98.40;;;;;;5089419;27;20048;-74
2023/09/06 10:59:57;;;;;;;3.65;2.47;;;28.50;98.10;;;;;;5037355;28;20052;-73
2023/09/06 11:02:22;;;;;;;4.47;2.15;;;28.60;96.80;;;;;;5058481;28;20048;-73
2023/09/06 11:04:48;;;;;;;4.60;2.40;;;28.60;97.30;;;;;;5066708;28;20040;-73
2023/09/06 11:07:14;;;;;;;3.25;2.10;;;28.70;97.30;;;;;;5059724;28;20048;-74
2023/09/06 11:09:44;;;;;;;3.40;1.80;;;28.80;96.20;;;;;;5061565;28;20044;-74
2023/09/06 11:12:11;;;;;;;;;;;28.80;93.50;;;;;;5064515;28;20059;-73
2023/09/06 11:14:37;;;;;;;2.65;1.80;;;28.80;93.30;;;;;;5050876;28;19926;-73
2023/09/06 11:17:02;;;;;;;4.18;2.40;;;28.80;93.90;;;;;;5061491;28;20405;-74
2023/09/06 11:19:29;;;;;;;4.63;2.30;;;28.90;92.90;;;;;;5064044;28;20037;-74
2023/09/06 11:22:09;;;;;;;4.35;2.08;;;28.90;93.50;;;;;;5063409;28;20053;-74
2023/09/06 11:24:36;;;;;;;2.60;1.80;;;29.00;92.00;;;;;;5056103;28;20044;-74
2023/09/06 11:27:20;;;;;;;4.95;1.85;;;29.10;92.10;;;;;;5059342;28;20052;-73
2023/09/06 11:29:57;;;;;;;4.07;2.30;;;29.10;91.00;;;;;;5080818;28;20503;-74
2023/09/06 11:32:23;;;;;;;3.63;1.95;;;29.20;91.00;;;;;;5046355;28;20503;-73
2023/09/06 11:34:49;;;;;;;3.80;2.00;;;29.30;90.40;;;;;;5060888;28;20045;-73
2023/09/06 11:37:16;;;;;;;5.53;2.40;;;29.20;87.10;;;;;;5062603;28;20078;-74
2023/09/06 11:39:46;;;;;;;3.30;2.10;;;29.30;87.30;;;;;;5062672;28;20083;-74
2023/09/06 11:42:15;;;;;;;3.05;2.17;;;29.30;87.40;;;;;;5062439;28;20052;-73
2023/09/06 11:44:49;;;;;;;3.70;2.28;;;29.30;87.70;;;;;;5063582;28;20071;-74
2023/09/06 11:47:19;;;;;;;3.20;2.00;;;29.40;88.60;;;;;;5056306;28;20140;-74
2023/09/06 11:49:49;;;;;;;3.35;1.83;;;29.40;87.10;;;;;;5057068;28;20044;-73
2023/09/06 11:52:18;;;;;;;4.97;2.30;;;29.40;86.70;;;;;;5085660;28;20063;-73
2023/09/06 11:54:52;;;;;;;2.38;1.90;;;29.50;88.60;;;;;;5053911;28;20052;-73
2023/09/06 11:57:30;;;;;;;4.38;1.88;;;29.50;89.80;;;;;;5062160;28;20140;-74
2023/09/06 11:59:57;;;;;;;2.47;1.93;;;29.60;88.20;;;;;;5050758;28;20075;-74
2023/09/06 12:02:34;;;;;;;3.17;1.80;;;29.60;87.70;;;;;;5061696;28;20287;-73
2023/09/06 12:05:09;;;;;;;4.43;1.98;;;29.70;87.00;;;;;;5053048;28;20075;-74
2023/09/06 12:07:35;;;;;;;2.80;1.77;;;29.70;85.70;;;;;;5068609;28;20426;-73
2023/09/06 12:10:05;;;;;;;5.50;2.15;;;29.70;84.00;;;;;;5054912;28;20064;-74
2023/09/06 12:12:43;;;;;;;4.13;2.00;;;29.70;85.20;;;;;;5055572;28;20044;-73
2023/09/06 12:15:14;;;;;;;4.20;2.03;;;29.80;86.10;;;;;;5053514;28;20160;-74
2023/09/06 12:17:49;;;;;;;3.63;2.28;;;29.80;84.10;;;;;;5054974;28;20101;-73
2023/09/06 12:20:20;;;;;;;3.05;1.80;;;29.80;84.20;;;;;;5044442;28;20044;-74
2023/09/06 12:22:50;;;;;;;4.07;1.88;;;29.80;86.00;;;;;;5066104;28;20090;-74
2023/09/06 12:25:16;;;;;;;2.60;1.92;;;29.90;86.10;;;;;;5060065;28;20186;-73
2023/09/06 12:27:43;;;;;;;4.03;2.03;;;29.90;85.70;;;;;;5064161;28;20059;-74
2023/09/06 12:30:13;;;;;;;2.97;2.17;;;30.00;85.70;;;;;;5062884;28;20040;-73
2023/09/06 12:32:43;;;;;;;3.08;1.98;;;30.00;85.40;;;;;;5055863;28;20106;-74
2023/09/06 12:35:09;;;;;;;;;;;30.00;86.60;;;;;;5040076;28;20125;-74
2023/09/06 12:37:36;;;;;;;3.33;2.30;;;30.00;84.30;;;;;;5064414;28;19924;-74
2023/09/06 12:40:09;;;;;;;4.72;2.30;;;30.00;85.70;;;;;;5048657;28;20052;-74
2023/09/06 12:42:43;;;;;;;6.10;2.17;;;30.00;84.60;;;;;;5088554;28;20074;-74
2023/09/06 12:45:33;;;;;;;5.47;2.10;;;30.00;85.50;;;;;;5059558;28;20052;-74
2023/09/06 12:48:00;;;;;;;2.92;2.05;;;30.00;85.40;;;;;;5058918;28;20072;-74
2023/09/06 12:50:27;;;;;;;4.38;2.17;;;30.00;87.50;;;;;;5092198;28;20102;-74
2023/09/06 12:52:53;;;;;;;2.95;1.95;;;30.00;89.80;;;;;;5043285;28;20044;-73
2023/09/06 12:55:20;;;;;;;4.38;2.22;;;30.00;87.40;;;;;;5066931;28;20098;-73